createdAt,value
2022-11-12T00:03:06.679Z,102988.38
2022-11-12T00:08:28.815Z,102990.66
2022-11-12T00:13:50.692Z,102984.19
2022-11-12T00:19:13.806Z,102983.28
2022-11-12T00:24:35.535Z,102993.00
2022-11-12T00:29:57.270Z,102991.84
2022-11-12T00:35:20.279Z,103001.53
2022-11-12T00:40:43.009Z,102997.78
2022-11-12T00:46:05.358Z,102994.19
2022-11-12T00:51:28.542Z,102999.03
2022-11-12T00:56:50.730Z,103007.38
2022-11-12T01:02:12.854Z,103010.44
2022-11-12T01:07:36.148Z,103004.38
2022-11-12T01:12:57.915Z,103015.00
2022-11-12T01:18:19.670Z,103003.25
2022-11-12T01:23:43.426Z,103012.31
2022-11-12T01:29:05.855Z,103008.72
2022-11-12T01:34:27.757Z,103003.28
2022-11-12T01:39:51.130Z,102997.50
2022-11-12T01:45:15.876Z,102997.22
2022-11-12T01:50:44.846Z,102994.81
2022-11-12T01:56:09.102Z,102991.81
2022-11-12T02:01:31.618Z,102985.19
2022-11-12T02:06:54.543Z,102983.06
2022-11-12T02:12:31.690Z,102973.91
2022-11-12T02:17:54.196Z,102974.97
2022-11-12T02:23:17.443Z,102969.25
2022-11-12T02:28:39.177Z,102969.13
2022-11-12T02:34:00.991Z,102975.63
2022-11-12T02:39:24.223Z,102972.59
2022-11-12T02:44:45.996Z,102981.81
2022-11-12T02:50:08.966Z,102983.22
2022-11-12T02:55:32.104Z,102975.97
2022-11-12T03:00:54.112Z,102970.97
2022-11-12T03:06:16.281Z,102968.41
2022-11-12T03:11:40.024Z,102977.03
2022-11-12T03:17:01.763Z,102967.19
2022-11-12T03:22:23.403Z,102963.59
2022-11-12T03:27:46.527Z,102961.34
2022-11-12T03:33:10.036Z,102960.00
2022-11-12T03:38:31.967Z,102964.84
2022-11-12T03:43:57.557Z,102977.25
2022-11-12T03:49:19.289Z,102982.06
2022-11-12T03:54:41.074Z,102988.25
2022-11-12T04:00:05.052Z,102990.22
2022-11-12T04:05:45.346Z,102988.69
2022-11-12T04:11:10.302Z,102974.97
2022-11-12T04:16:50.988Z,102978.87
2022-11-12T04:22:13.170Z,102977.53
2022-11-12T04:27:36.097Z,102983.28
2022-11-12T04:32:59.486Z,102973.62
2022-11-12T04:38:21.197Z,102965.47
2022-11-12T04:44:00.471Z,102958.09
2022-11-12T04:49:23.749Z,102954.28
2022-11-12T04:54:45.542Z,102950.22
2022-11-12T05:00:08.349Z,102940.56
2022-11-12T05:05:33.982Z,102942.22
2022-11-12T05:10:56.108Z,102947.06
2022-11-12T05:16:17.871Z,102934.69
2022-11-12T05:21:59.007Z,102937.69
2022-11-12T05:27:22.347Z,102934.97
2022-11-12T05:32:44.257Z,102933.16
2022-11-12T05:38:07.429Z,102925.75
2022-11-12T05:43:29.165Z,102924.84
2022-11-12T05:48:50.853Z,102930.44
2022-11-12T05:54:14.324Z,102923.19
2022-11-12T05:59:36.377Z,102931.34
2022-11-12T06:04:58.115Z,102926.81
2022-11-12T06:10:21.259Z,102932.88
2022-11-12T06:15:43.245Z,102937.84
2022-11-12T06:21:26.824Z,102944.50
2022-11-12T06:26:49.822Z,102933.75
2022-11-12T06:32:11.521Z,102924.09
2022-11-12T06:37:33.338Z,102940.88
2022-11-12T06:42:59.341Z,102936.78
2022-11-12T06:48:21.448Z,102934.06
2022-11-12T06:53:42.991Z,102935.59
2022-11-12T06:59:06.097Z,102951.44
2022-11-12T07:04:27.799Z,102942.41
2022-11-12T07:09:49.629Z,102949.03
2022-11-12T07:15:13.141Z,102953.09
2022-11-12T07:20:35.217Z,102956.91
2022-11-12T07:25:58.633Z,102957.47
2022-11-12T07:31:22.137Z,102954.31
2022-11-12T07:36:44.204Z,102952.81
2022-11-12T07:42:06.063Z,102955.50
2022-11-12T07:47:29.334Z,102967.12
2022-11-12T07:52:51.264Z,102964.88
2022-11-12T07:58:13.136Z,102964.56
2022-11-12T08:03:36.366Z,102973.28
2022-11-12T08:08:59.993Z,102973.44
2022-11-12T08:14:22.901Z,102971.78
2022-11-12T08:19:46.285Z,102980.53
2022-11-12T08:25:08.935Z,102987.75
2022-11-12T08:30:31.335Z,102987.38
2022-11-12T08:35:54.977Z,102987.03
2022-11-12T08:41:17.679Z,102992.72
2022-11-12T08:46:39.456Z,102984.62
2022-11-12T08:52:02.819Z,102994.38
2022-11-12T08:57:24.829Z,102994.56
2022-11-12T09:02:46.680Z,102993.66
2022-11-12T09:08:13.672Z,102983.97
2022-11-12T09:13:35.929Z,102987.19
2022-11-12T09:18:57.843Z,102983.53
2022-11-12T09:24:20.963Z,102985.94
2022-11-12T09:29:42.627Z,102990.75
2022-11-12T09:35:05.068Z,102984.62
2022-11-12T09:40:41.575Z,102987.16
2022-11-12T09:46:27.350Z,102986.69
2022-11-12T09:51:52.928Z,102978.94
2022-11-12T09:57:16.355Z,102979.72
2022-11-12T10:02:43.006Z,102974.88
2022-11-12T10:08:21.441Z,102976.88
2022-11-12T10:13:54.714Z,102976.16
2022-11-12T10:19:43.026Z,102976.03
2022-11-12T10:25:15.644Z,102973.91
2022-11-12T10:30:38.916Z,102966.38
2022-11-12T10:36:18.111Z,102969.28
2022-11-12T10:41:39.975Z,102985.50
2022-11-12T10:47:32.649Z,102962.50
2022-11-12T10:52:57.783Z,102952.97
2022-11-12T10:58:20.899Z,102951.91
2022-11-12T11:03:52.314Z,102957.38
2022-11-12T11:09:20.615Z,102948.06
2022-11-12T11:14:44.554Z,102940.00
2022-11-12T11:20:20.665Z,102931.81
2022-11-12T11:25:44.267Z,102928.50
2022-11-12T11:31:20.446Z,102914.97
2022-11-12T11:36:54.166Z,102917.59
2022-11-12T11:42:36.845Z,102896.69
2022-11-12T11:48:07.540Z,102887.50
2022-11-12T11:53:41.355Z,102881.03
2022-11-12T11:59:17.768Z,102875.22
2022-11-12T12:04:48.623Z,102874.37
2022-11-12T12:10:34.748Z,102853.03
2022-11-12T12:16:33.810Z,102847.22
2022-11-12T12:21:59.667Z,102850.47
2022-11-12T12:27:28.876Z,102839.69
2022-11-12T12:32:56.811Z,102838.94
2022-11-12T12:38:24.707Z,102831.47
2022-11-12T12:43:53.502Z,102816.37
2022-11-12T12:49:18.749Z,102808.16
2022-11-12T12:54:56.873Z,102813.59
2022-11-12T13:00:32.923Z,102813.19
2022-11-12T13:06:07.927Z,102808.72
2022-11-12T13:12:10.866Z,102810.69
2022-11-12T13:17:49.122Z,102803.28
2022-11-12T13:23:33.621Z,102806.00
2022-11-12T13:29:37.821Z,102803.47
2022-11-12T13:35:34.712Z,102802.25
2022-11-12T13:41:05.839Z,102795.91
2022-11-12T13:46:30.621Z,102791.12
2022-11-12T13:51:56.677Z,102796.66
2022-11-12T13:57:30.751Z,102804.09
2022-11-12T14:02:56.374Z,102794.47
2022-11-12T14:08:35.968Z,102780.34
2022-11-12T14:14:05.543Z,102774.56
2022-11-12T14:19:55.359Z,102770.66
2022-11-12T14:25:22.180Z,102768.13
2022-11-12T14:30:45.691Z,102774.81
2022-11-12T14:36:14.560Z,102775.47
2022-11-12T14:41:42.687Z,102774.50
2022-11-12T14:47:05.260Z,102770.75
2022-11-12T14:52:32.507Z,102777.94
2022-11-12T14:57:58.762Z,102773.62
2022-11-12T15:03:24.082Z,102765.22
2022-11-12T15:08:57.540Z,102758.87
2022-11-12T15:14:25.208Z,102754.69
2022-11-12T15:19:47.270Z,102760.41
2022-11-12T15:25:22.924Z,102761.97
2022-11-12T15:31:01.678Z,102763.72
2022-11-12T15:36:25.520Z,102749.75
2022-11-12T15:41:47.702Z,102741.19
2022-11-12T15:47:20.700Z,102744.56
2022-11-12T15:52:42.902Z,102744.28
2022-11-12T15:58:06.243Z,102740.94
2022-11-12T16:03:31.362Z,102742.47
2022-11-12T16:08:52.971Z,102740.62
2022-11-12T16:14:15.504Z,102733.88
2022-11-12T16:19:38.984Z,102729.31
2022-11-12T16:25:00.730Z,102734.16
2022-11-12T16:30:25.272Z,102727.72
2022-11-12T16:35:48.830Z,102729.09
2022-11-12T16:41:12.069Z,102731.59
2022-11-12T16:46:40.210Z,102719.00
2022-11-12T16:52:03.127Z,102722.53
2022-11-12T16:57:25.094Z,102727.31
2022-11-12T17:02:52.097Z,102723.78
2022-11-12T17:08:16.104Z,102726.97
2022-11-12T17:13:39.432Z,102722.50
2022-11-12T17:19:02.708Z,102727.91
2022-11-12T17:24:28.761Z,102724.81
2022-11-12T17:29:50.685Z,102719.13
2022-11-12T17:35:12.363Z,102719.81
2022-11-12T17:40:35.415Z,102721.94
2022-11-12T17:45:57.655Z,102721.03
2022-11-12T17:51:21.522Z,102724.81
2022-11-12T17:56:44.583Z,102719.47
2022-11-12T18:02:06.460Z,102718.66
2022-11-12T18:07:28.257Z,102719.44
2022-11-12T18:12:52.620Z,102719.59
2022-11-12T18:18:14.746Z,102715.97
2022-11-12T18:23:37.995Z,102710.53
2022-11-12T18:29:01.506Z,102721.94
2022-11-12T18:34:23.366Z,102723.12
2022-11-12T18:39:45.314Z,102718.78
2022-11-12T18:45:10.002Z,102708.47
2022-11-12T18:50:32.214Z,102707.81
2022-11-12T18:55:54.186Z,102702.78
2022-11-12T19:01:20.982Z,102716.31
2022-11-12T19:06:43.188Z,102706.97
2022-11-12T19:12:05.450Z,102713.31
2022-11-12T19:17:31.135Z,102713.44
2022-11-12T19:22:54.126Z,102701.28
2022-11-12T19:28:16.198Z,102699.69
2022-11-12T19:33:39.570Z,102706.03
2022-11-12T19:39:02.613Z,102710.53
2022-11-12T19:44:24.626Z,102701.28
2022-11-12T19:49:47.785Z,102703.78
2022-11-12T19:55:09.550Z,102693.31
2022-11-12T20:00:31.367Z,102691.06
2022-11-12T20:05:54.341Z,102697.50
2022-11-12T20:11:18.339Z,102687.56
2022-11-12T20:16:40.543Z,102673.53
2022-11-12T20:22:03.608Z,102673.97
2022-11-12T20:27:25.346Z,102678.31
2022-11-12T20:32:47.409Z,102683.59
2022-11-12T20:38:10.384Z,102669.50
2022-11-12T20:43:32.692Z,102666.47
2022-11-12T20:48:55.146Z,102660.84
2022-11-12T20:54:18.444Z,102671.63
2022-11-12T20:59:41.285Z,102665.88
2022-11-12T21:05:03.506Z,102665.31
2022-11-12T21:10:27.039Z,102655.16
2022-11-12T21:15:49.144Z,102661.78
2022-11-12T21:21:12.781Z,102657.81
2022-11-12T21:26:35.962Z,102652.06
2022-11-12T21:31:57.987Z,102651.72
2022-11-12T21:37:20.080Z,102640.88
2022-11-12T21:42:44.275Z,102635.38
2022-11-12T21:48:06.657Z,102631.78
2022-11-12T21:53:28.869Z,102633.44
2022-11-12T21:58:53.186Z,102641.19
2022-11-12T22:04:18.278Z,102636.69
2022-11-12T22:09:40.502Z,102645.00
2022-11-12T22:15:03.629Z,102640.91
2022-11-12T22:20:25.758Z,102636.94
2022-11-12T22:25:48.350Z,102632.34
2022-11-12T22:31:13.975Z,102628.59
2022-11-12T22:36:36.075Z,102624.53
2022-11-12T22:41:58.140Z,102620.03
2022-11-12T22:47:21.338Z,102607.53
2022-11-12T22:52:48.826Z,102617.50
2022-11-12T22:58:12.169Z,102607.84
2022-11-12T23:03:36.264Z,102601.53
2022-11-12T23:09:00.088Z,102599.59
2022-11-12T23:14:22.088Z,102601.81
2022-11-12T23:19:45.566Z,102607.75
2022-11-12T23:25:08.651Z,102602.22
2022-11-12T23:30:30.688Z,102593.59
2022-11-12T23:35:53.926Z,102590.50
2022-11-12T23:41:18.618Z,102587.69
2022-11-12T23:46:40.224Z,102572.75
2022-11-12T23:52:03.370Z,102574.56
2022-11-12T23:57:25.189Z,102557.16
